French Village, Canada
Current Conditions -  °F | °C
As of 6:00 AM on Sunday 21 Dec 2014 (Local Time) from CYHZ Reporting Station
Overcast Overcast  
Wind Chill: 23°   Ceiling: 2200
Heat Index: 28°   Visibility: 15mi
Dew Point: 25°   Wind: 5mph
Humidity: 86%   Direction: 360°N
Pressure: 30.31"   Gusts: NA
Location:  44.7°N, 63.88°W
Report Text: CYHZ 211000Z 36004KT 15SM OVC022 M02/M04 A3031 RMK SC8 SLP272
Loading
Personal Weather Stations






























Interactive Weather Map New forecast layout! Learn more

10-Day Weather Forecast

Advertisements
Track Severe Weather on mobile